Time;durP1;ratioP1;P1;durP2;ratioP2;P2;SDS_P1;SDS_P2;PMS_P1;PMS_P2;Temp;Humidity;BMP_temperature;BMP_pressure;BME280_temperature;BME280_humidity;BME280_pressure;Samples;Min_cycle;Max_cycle;Signal;HPM_P1;HPM_P2
2022/04/04 00:01:17;;;;;;;10.55;5.38;;;2.10;99.90;;;;;;4982218;28;20059;-73
2022/04/04 00:03:43;;;;;;;8.73;5.35;;;2.10;99.90;;;;;;4992239;28;20049;-73
2022/04/04 00:06:08;;;;;;;9.52;5.72;;;2.00;99.90;;;;;;4998870;28;20037;-73
2022/04/04 00:08:34;;;;;;;9.48;5.72;;;2.00;99.90;;;;;;4962473;28;21057;-73
2022/04/04 00:11:01;;;;;;;10.82;5.78;;;1.90;99.90;;;;;;4997124;28;20154;-73
2022/04/04 00:13:28;;;;;;;11.57;5.90;;;1.90;99.90;;;;;;4999896;28;20524;-73
2022/04/04 00:15:55;;;;;;;12.18;6.50;;;2.00;99.90;;;;;;4997256;28;20057;-73
2022/04/04 00:18:21;;;;;;;9.90;6.10;;;1.90;99.90;;;;;;4973119;28;20065;-73
2022/04/04 00:20:49;;;;;;;10.20;5.93;;;1.90;99.90;;;;;;4977471;28;20088;-73
2022/04/04 00:23:16;;;;;;;12.43;6.28;;;1.90;99.90;;;;;;4978253;28;20128;-73
2022/04/04 00:25:44;;;;;;;8.88;5.63;;;1.90;99.90;;;;;;4962128;28;20550;-73
2022/04/04 00:28:10;;;;;;;10.88;6.38;;;2.00;99.90;;;;;;4974397;28;20054;-73
2022/04/04 00:30:51;;;;;;;11.45;5.80;;;2.00;99.90;;;;;;4968901;28;20037;-73
2022/04/04 00:33:16;;;;;;;10.68;6.15;;;2.00;99.90;;;;;;4979351;28;20695;-73
2022/04/04 00:35:42;;;;;;;11.75;6.30;;;2.00;99.90;;;;;;4977435;28;20065;-73
2022/04/04 00:38:10;;;;;;;12.73;6.32;;;2.00;99.90;;;;;;4973820;28;20038;-72
2022/04/04 00:40:36;;;;;;;9.68;6.13;;;2.00;99.90;;;;;;4977192;28;20148;-73
2022/04/04 00:43:02;;;;;;;10.77;6.15;;;2.10;99.90;;;;;;4972340;28;20056;-73
2022/04/04 00:45:28;;;;;;;10.82;6.68;;;2.10;99.90;;;;;;4972811;28;20092;-73
2022/04/04 00:47:54;;;;;;;11.43;6.22;;;2.10;99.90;;;;;;4973927;28;20501;-72
2022/04/04 00:50:22;;;;;;;10.43;6.65;;;2.10;99.90;;;;;;4975413;28;20041;-72
2022/04/04 00:52:49;;;;;;;12.68;6.50;;;2.20;99.90;;;;;;4976976;28;20245;-73
2022/04/04 00:55:15;;;;;;;11.27;6.47;;;2.20;99.90;;;;;;4978645;28;20138;-73
2022/04/04 00:57:41;;;;;;;12.48;6.78;;;2.20;99.90;;;;;;4976856;28;20042;-73
2022/04/04 01:00:09;;;;;;;11.55;6.57;;;2.20;99.90;;;;;;4971621;28;20666;-72
2022/04/04 01:02:36;;;;;;;12.73;7.10;;;2.20;99.90;;;;;;4975347;28;20755;-73
2022/04/04 01:05:04;;;;;;;10.93;7.68;;;2.30;99.90;;;;;;4975211;28;20041;-73
2022/04/04 01:07:31;;;;;;;12.82;7.80;;;2.30;99.90;;;;;;4985640;28;20056;-73
2022/04/04 01:09:56;;;;;;;13.40;7.53;;;2.30;99.90;;;;;;4977764;28;20084;-73
2022/04/04 01:12:22;;;;;;;15.90;8.43;;;2.40;99.90;;;;;;4976419;28;20158;-73
2022/04/04 01:14:48;;;;;;;12.75;8.40;;;2.50;99.90;;;;;;4977482;28;20133;-72
2022/04/04 01:17:16;;;;;;;14.23;8.98;;;2.50;99.90;;;;;;4955899;28;20053;-72
2022/04/04 01:19:42;;;;;;;12.88;9.32;;;2.60;99.90;;;;;;4969397;28;20061;-73
2022/04/04 01:22:11;;;;;;;15.52;9.75;;;2.60;99.90;;;;;;4973086;28;20046;-73
2022/04/04 01:24:38;;;;;;;14.00;10.00;;;2.70;99.90;;;;;;4968671;28;20104;-72
2022/04/04 01:27:06;;;;;;;15.50;10.68;;;2.80;99.90;;;;;;4986310;28;20057;-73
2022/04/04 01:29:32;;;;;;;13.27;10.52;;;2.80;99.90;;;;;;4976647;28;20045;-73
2022/04/04 01:31:58;;;;;;;15.98;11.25;;;2.80;99.90;;;;;;4974848;28;20084;-73
2022/04/04 01:34:24;;;;;;;15.65;11.68;;;2.80;99.90;;;;;;4971845;28;20142;-73
2022/04/04 01:36:51;;;;;;;15.73;11.05;;;2.90;99.90;;;;;;4970601;28;20042;-73
2022/04/04 01:39:17;;;;;;;12.90;10.32;;;3.00;99.90;;;;;;4971751;28;20906;-72
2022/04/04 01:41:43;;;;;;;15.52;10.20;;;3.00;99.90;;;;;;4981329;28;20057;-73
2022/04/04 01:44:10;;;;;;;15.93;10.00;;;3.00;99.90;;;;;;4977603;28;20795;-73
2022/04/04 01:46:36;;;;;;;14.60;10.55;;;3.00;99.90;;;;;;4968886;28;20045;-73
2022/04/04 01:49:04;;;;;;;16.00;10.77;;;3.00;99.90;;;;;;4977373;28;20041;-73
2022/04/04 01:51:32;;;;;;;13.75;10.13;;;3.10;99.90;;;;;;4982554;28;20123;-73
2022/04/04 01:53:58;;;;;;;15.88;10.27;;;3.10;99.90;;;;;;4975741;28;20054;-72
2022/04/04 01:56:24;;;;;;;13.52;9.30;;;3.00;99.90;;;;;;4975223;28;20107;-73
2022/04/04 01:58:50;;;;;;;13.52;9.55;;;3.00;99.90;;;;;;4979105;28;20060;-73
2022/04/04 02:01:18;;;;;;;14.27;9.93;;;3.10;99.90;;;;;;4976682;28;20096;-73
2022/04/04 02:03:47;;;;;;;15.00;10.90;;;3.10;99.90;;;;;;4981585;28;20142;-73
2022/04/04 02:06:13;;;;;;;14.55;9.68;;;3.20;99.90;;;;;;4983588;28;20053;-73
2022/04/04 02:08:42;;;;;;;14.02;9.85;;;3.20;99.90;;;;;;4978105;28;20052;-73
2022/04/04 02:11:08;;;;;;;15.48;10.15;;;3.20;99.90;;;;;;4972565;28;20516;-73
2022/04/04 02:13:34;;;;;;;13.18;10.02;;;3.20;99.90;;;;;;4976309;28;20049;-73
2022/04/04 02:16:01;;;;;;;15.70;9.95;;;3.20;99.90;;;;;;4974633;28;20054;-73
2022/04/04 02:18:34;;;;;;;14.98;11.20;;;3.20;99.90;;;;;;4971692;28;20591;-72
2022/04/04 02:21:01;;;;;;;17.17;10.60;;;3.10;99.90;;;;;;4972248;28;20057;-73
2022/04/04 02:23:27;;;;;;;14.68;10.82;;;3.20;99.90;;;;;;4977640;28;20895;-71
2022/04/04 02:25:55;;;;;;;14.93;10.88;;;3.20;99.90;;;;;;4991385;28;20046;-73
2022/04/04 02:28:22;;;;;;;15.60;11.10;;;3.20;99.90;;;;;;4973188;28;20088;-73
2022/04/04 02:30:52;;;;;;;15.23;11.20;;;3.20;99.90;;;;;;4975273;28;20079;-73
2022/04/04 02:33:19;;;;;;;15.45;10.80;;;3.20;99.90;;;;;;4989163;28;20552;-73
2022/04/04 02:35:46;;;;;;;16.27;11.52;;;3.20;99.90;;;;;;4975907;28;20057;-73
2022/04/04 02:38:13;;;;;;;16.70;11.68;;;3.20;99.90;;;;;;4971596;28;20050;-72
2022/04/04 02:40:40;;;;;;;19.92;12.60;;;3.30;99.90;;;;;;4967978;28;20037;-73
2022/04/04 02:43:07;;;;;;;16.17;11.73;;;3.20;99.90;;;;;;4973027;28;20148;-73
2022/04/04 02:45:34;;;;;;;18.27;12.20;;;3.20;99.90;;;;;;4982297;28;20769;-73
2022/04/04 02:48:00;;;;;;;17.25;12.45;;;3.30;99.90;;;;;;4972191;28;20048;-73
2022/04/04 02:50:26;;;;;;;19.98;13.25;;;3.20;99.90;;;;;;4972768;28;20038;-72
2022/04/04 02:52:52;;;;;;;17.20;12.73;;;3.20;99.90;;;;;;4972921;28;20512;-73
2022/04/04 02:58:03;;;;;;;20.20;13.55;;;3.30;99.90;;;;;;4970231;28;20050;-73
2022/04/04 03:00:29;;;;;;;17.83;13.48;;;3.30;99.90;;;;;;4977424;28;20155;-73
2022/04/04 03:02:56;;;;;;;21.60;14.55;;;3.30;99.90;;;;;;4977445;28;20053;-72
2022/04/04 03:05:23;;;;;;;18.13;13.88;;;3.30;99.90;;;;;;4979224;28;20046;-72
2022/04/04 03:07:49;;;;;;;20.15;14.73;;;3.30;99.90;;;;;;4975187;28;20053;-73
2022/04/04 03:10:15;;;;;;;20.40;14.80;;;3.40;99.90;;;;;;4977463;28;20045;-73
2022/04/04 03:12:50;;;;;;;19.77;15.45;;;3.50;99.90;;;;;;4970784;28;20120;-72
2022/04/04 03:15:22;;;;;;;21.92;15.13;;;3.50;99.90;;;;;;4966889;28;20496;-73
2022/04/04 03:17:53;;;;;;;19.10;15.32;;;3.50;99.90;;;;;;4970992;28;20502;-73
2022/04/04 03:20:21;;;;;;;21.67;15.38;;;3.50;99.90;;;;;;4972120;28;20061;-72
2022/04/04 03:22:50;;;;;;;22.70;16.10;;;3.60;99.90;;;;;;4972596;28;20105;-73
2022/04/04 03:25:17;;;;;;;21.10;16.38;;;3.60;99.90;;;;;;4978910;28;20108;-73
2022/04/04 03:27:44;;;;;;;21.65;15.85;;;3.60;99.90;;;;;;4971069;28;20233;-73
2022/04/04 03:30:17;;;;;;;20.88;16.02;;;3.60;99.90;;;;;;4971230;28;20045;-72
2022/04/04 03:32:48;;;;;;;23.25;15.77;;;3.70;99.90;;;;;;4971845;28;20611;-72
2022/04/04 03:35:15;;;;;;;19.27;15.30;;;3.70;99.90;;;;;;4975114;28;20049;-72
2022/04/04 03:37:43;;;;;;;19.77;15.65;;;3.70;99.90;;;;;;4972755;28;20145;-73
2022/04/04 03:40:12;;;;;;;21.15;15.18;;;3.70;99.90;;;;;;4978585;28;20124;-73
2022/04/04 03:42:43;;;;;;;20.77;15.15;;;3.80;99.90;;;;;;4974443;28;20046;-72
2022/04/04 03:45:11;;;;;;;23.25;15.27;;;3.70;99.90;;;;;;4996129;28;20042;-73
2022/04/04 03:47:38;;;;;;;21.60;15.50;;;3.80;99.90;;;;;;4974139;28;21208;-73
2022/04/04 03:50:06;;;;;;;18.67;15.32;;;3.80;99.90;;;;;;4973616;28;20050;-73
2022/04/04 03:52:32;;;;;;;20.98;15.05;;;3.80;99.90;;;;;;4977018;28;20264;-73
2022/04/04 03:54:57;;;;;;;18.48;14.80;;;3.80;99.90;;;;;;4979926;28;20502;-72
2022/04/04 03:57:23;;;;;;;19.95;15.13;;;3.80;99.90;;;;;;4994283;28;20855;-73
2022/04/04 03:59:49;;;;;;;21.25;15.70;;;3.80;99.90;;;;;;4976357;28;20077;-73
2022/04/04 04:02:15;;;;;;;18.35;15.02;;;3.90;99.90;;;;;;4973822;28;20081;-73
2022/04/04 04:04:41;;;;;;;18.98;15.73;;;3.90;99.90;;;;;;4974803;28;20042;-72
2022/04/04 04:07:10;;;;;;;20.88;15.15;;;3.90;99.90;;;;;;4969231;28;20072;-73
2022/04/04 04:09:37;;;;;;;20.23;15.07;;;4.00;99.90;;;;;;4975719;28;20870;-73
2022/04/04 04:12:03;;;;;;;21.75;15.18;;;4.00;99.90;;;;;;4971960;28;20302;-72
2022/04/04 04:14:29;;;;;;;19.08;14.43;;;4.00;99.90;;;;;;4973849;28;20263;-74
2022/04/04 04:16:55;;;;;;;22.88;14.98;;;4.00;99.90;;;;;;4971546;28;20405;-73
2022/04/04 04:22:06;;;;;;;18.88;15.07;;;4.00;99.90;;;;;;4987802;28;20132;-73
2022/04/04 04:24:31;;;;;;;19.15;15.07;;;4.00;99.90;;;;;;4989030;28;20042;-73
2022/04/04 04:26:57;;;;;;;19.25;14.73;;;4.00;99.90;;;;;;4968161;28;20171;-73
2022/04/04 04:29:23;;;;;;;18.20;14.88;;;4.10;99.90;;;;;;4983570;28;20152;-73
2022/04/04 04:31:51;;;;;;;19.30;14.65;;;4.10;99.90;;;;;;4993835;28;20567;-74
2022/04/04 04:34:17;;;;;;;18.95;14.90;;;4.10;99.90;;;;;;4986922;28;20045;-72
2022/04/04 04:36:43;;;;;;;18.90;14.75;;;4.10;99.90;;;;;;5004146;28;20122;-72
2022/04/04 04:39:09;;;;;;;18.02;14.15;;;4.10;99.90;;;;;;4972465;28;20076;-73
2022/04/04 04:41:35;;;;;;;18.80;14.70;;;4.10;99.90;;;;;;5000315;28;20172;-73
2022/04/04 04:44:05;;;;;;;18.23;14.70;;;4.10;99.90;;;;;;4989192;28;20903;-72
2022/04/04 04:46:31;;;;;;;19.55;14.20;;;4.20;99.90;;;;;;4985392;28;20045;-73
2022/04/04 04:48:57;;;;;;;17.65;14.95;;;4.10;99.90;;;;;;4990336;28;20053;-73
2022/04/04 04:51:24;;;;;;;20.40;13.77;;;4.20;99.90;;;;;;4993696;28;20076;-72
2022/04/04 04:53:50;;;;;;;18.90;13.52;;;4.20;99.90;;;;;;4990068;28;20049;-73
2022/04/04 04:56:15;;;;;;;25.20;15.07;;;4.20;99.90;;;;;;4988637;28;20049;-72
2022/04/04 04:58:41;;;;;;;20.00;15.40;;;4.20;99.90;;;;;;4969687;28;20041;-72
2022/04/04 05:01:07;;;;;;;19.67;15.07;;;4.20;99.90;;;;;;4989325;28;20048;-73
2022/04/04 05:03:33;;;;;;;20.48;16.05;;;4.10;99.90;;;;;;4996633;28;20107;-73
2022/04/04 05:05:59;;;;;;;19.05;16.50;;;4.10;99.90;;;;;;4989832;28;20041;-72
2022/04/04 05:08:25;;;;;;;19.75;16.00;;;4.10;99.90;;;;;;4987972;28;20056;-72
2022/04/04 05:10:52;;;;;;;22.38;16.33;;;4.10;99.90;;;;;;5000756;28;20041;-73
2022/04/04 05:13:18;;;;;;;24.23;17.50;;;4.10;99.90;;;;;;4988375;28;20123;-72
2022/04/04 05:15:44;;;;;;;20.95;16.27;;;4.10;99.90;;;;;;4987930;28;20648;-72
2022/04/04 05:18:10;;;;;;;20.17;16.80;;;4.10;99.90;;;;;;5006939;28;20754;-72
2022/04/04 05:20:36;;;;;;;20.35;17.38;;;4.10;99.90;;;;;;5008733;28;20049;-72
2022/04/04 05:23:02;;;;;;;20.83;17.27;;;4.10;99.90;;;;;;5010701;28;20131;-73
2022/04/04 05:25:28;;;;;;;21.88;17.25;;;4.10;99.90;;;;;;4995960;28;20471;-72
2022/04/04 05:27:56;;;;;;;21.20;17.65;;;4.00;99.90;;;;;;5011460;28;20108;-72
2022/04/04 05:30:23;;;;;;;20.92;16.25;;;4.10;99.90;;;;;;4991085;28;20049;-71
2022/04/04 05:32:49;;;;;;;22.58;18.17;;;4.10;99.90;;;;;;5009613;28;20432;-72
2022/04/04 05:35:18;;;;;;;20.83;17.05;;;4.10;99.90;;;;;;4993524;28;20140;-72
2022/04/04 05:37:45;;;;;;;20.77;17.23;;;4.10;99.90;;;;;;5010952;28;20053;-72
2022/04/04 05:40:11;;;;;;;21.45;17.60;;;4.10;99.90;;;;;;5011539;28;20411;-72
2022/04/04 05:42:37;;;;;;;21.88;15.90;;;4.10;99.90;;;;;;5010137;28;20511;-73
2022/04/04 05:45:03;;;;;;;19.23;16.15;;;4.20;99.90;;;;;;5011725;28;20045;-73
2022/04/04 05:47:29;;;;;;;22.48;17.17;;;4.20;99.90;;;;;;4990691;28;20115;-74
2022/04/04 05:49:55;;;;;;;18.92;15.05;;;4.20;99.90;;;;;;5008761;28;20037;-72
2022/04/04 05:52:25;;;;;;;22.42;16.25;;;4.30;99.90;;;;;;5006835;28;20155;-73
2022/04/04 05:54:54;;;;;;;20.27;15.68;;;4.30;99.90;;;;;;4990318;28;20450;-73
2022/04/04 05:57:24;;;;;;;19.33;14.90;;;4.30;99.90;;;;;;5007490;28;20049;-73
2022/04/04 05:59:51;;;;;;;17.73;15.30;;;4.30;99.90;;;;;;4986210;28;20602;-73
2022/04/04 06:02:17;;;;;;;19.25;14.93;;;4.40;99.90;;;;;;5002813;28;20151;-73
2022/04/04 06:04:43;;;;;;;18.42;14.90;;;4.40;99.90;;;;;;5005785;28;20134;-73
2022/04/04 06:07:09;;;;;;;20.67;16.27;;;4.40;99.90;;;;;;4978420;28;20603;-73
2022/04/04 06:09:34;;;;;;;17.70;15.38;;;4.40;99.90;;;;;;4992972;28;20537;-73
2022/04/04 06:12:00;;;;;;;18.92;15.43;;;4.50;99.90;;;;;;4992878;28;20420;-73
2022/04/04 06:14:26;;;;;;;19.70;15.65;;;4.50;99.90;;;;;;4989818;28;20558;-73
2022/04/04 06:16:52;;;;;;;17.58;14.50;;;4.60;99.90;;;;;;5008026;28;20041;-73
2022/04/04 06:19:18;;;;;;;19.00;14.75;;;4.70;99.90;;;;;;4984823;28;20059;-72
2022/04/04 06:21:44;;;;;;;17.50;13.98;;;4.70;99.90;;;;;;4987681;28;20139;-72
2022/04/04 06:24:10;;;;;;;17.15;14.20;;;4.80;99.90;;;;;;5005714;28;20050;-73
2022/04/04 06:26:36;;;;;;;17.02;13.88;;;4.90;99.90;;;;;;5007064;28;20547;-72
2022/04/04 06:29:02;;;;;;;17.85;14.38;;;4.90;99.90;;;;;;5002810;28;20060;-71
2022/04/04 06:31:28;;;;;;;22.00;13.50;;;4.90;99.90;;;;;;5010339;28;20040;-74
2022/04/04 06:33:54;;;;;;;16.77;13.77;;;5.00;99.90;;;;;;5007114;28;20134;-73
2022/04/04 06:36:23;;;;;;;16.58;13.13;;;5.00;99.90;;;;;;5007472;28;20041;-72
2022/04/04 06:38:50;;;;;;;18.10;12.73;;;5.10;99.90;;;;;;4994928;28;20337;-73
2022/04/04 06:41:16;;;;;;;14.35;11.73;;;5.10;99.90;;;;;;5010555;28;20087;-73
2022/04/04 06:43:42;;;;;;;15.02;11.75;;;5.10;99.90;;;;;;5008175;28;20799;-74
2022/04/04 06:46:07;;;;;;;14.95;11.68;;;5.10;99.90;;;;;;4989026;28;20099;-73
2022/04/04 06:48:34;;;;;;;16.42;12.00;;;5.10;99.90;;;;;;4987245;28;20408;-73
2022/04/04 06:51:01;;;;;;;15.88;11.48;;;5.10;99.90;;;;;;5007850;28;20156;-72
2022/04/04 06:53:27;;;;;;;15.88;11.60;;;5.20;99.90;;;;;;4992034;28;20045;-73
2022/04/04 06:55:52;;;;;;;14.68;11.60;;;5.20;99.90;;;;;;5009423;28;20492;-73
2022/04/04 06:58:18;;;;;;;15.90;11.57;;;5.30;99.90;;;;;;5008421;28;20041;-73
2022/04/04 07:00:45;;;;;;;14.98;11.75;;;5.40;99.90;;;;;;5010850;28;20092;-73
2022/04/04 07:03:11;;;;;;;15.52;11.88;;;5.60;99.90;;;;;;5006516;28;20082;-74
2022/04/04 07:05:37;;;;;;;15.88;11.90;;;5.70;99.90;;;;;;5008942;28;20053;-73
2022/04/04 07:08:03;;;;;;;15.27;11.45;;;5.80;99.90;;;;;;5011781;28;20473;-73
2022/04/04 07:10:29;;;;;;;16.92;11.27;;;5.80;99.90;;;;;;4989722;28;20049;-71
2022/04/04 07:12:55;;;;;;;16.42;11.38;;;5.80;99.90;;;;;;5008560;28;20049;-74
2022/04/04 07:15:20;;;;;;;16.65;11.07;;;5.80;99.90;;;;;;4990101;28;21117;-74
2022/04/04 07:17:46;;;;;;;16.15;11.40;;;5.80;99.90;;;;;;5011363;28;20069;-72
2022/04/04 07:20:13;;;;;;;12.63;10.48;;;5.80;99.90;;;;;;5009122;28;20049;-73
2022/04/04 07:22:40;;;;;;;15.32;10.20;;;5.80;99.90;;;;;;5009532;28;20728;-73
2022/04/04 07:25:07;;;;;;;17.75;10.88;;;5.80;99.90;;;;;;5007456;28;20068;-72
2022/04/04 07:27:37;;;;;;;15.55;11.13;;;5.80;99.90;;;;;;5012751;28;20184;-73
2022/04/04 07:30:03;;;;;;;15.13;10.32;;;5.80;99.90;;;;;;5007150;28;20059;-73
2022/04/04 07:32:29;;;;;;;17.05;11.15;;;5.80;99.90;;;;;;5009421;28;20046;-72
2022/04/04 07:34:55;;;;;;;14.80;11.23;;;5.70;99.90;;;;;;5008219;28;20049;-72
2022/04/04 07:37:20;;;;;;;46.75;12.48;;;5.70;99.90;;;;;;5012317;28;20053;-75
2022/04/04 07:39:46;;;;;;;26.83;11.52;;;5.70;99.90;;;;;;5010805;28;20044;-74
2022/04/04 07:42:13;;;;;;;15.85;10.93;;;5.80;99.90;;;;;;5005643;28;20045;-73
2022/04/04 07:44:39;;;;;;;14.90;10.93;;;5.80;99.90;;;;;;5009552;28;20049;-73
2022/04/04 07:47:06;;;;;;;19.25;11.02;;;5.80;99.90;;;;;;5006293;28;20757;-73
2022/04/04 07:49:31;;;;;;;16.52;11.73;;;5.80;99.90;;;;;;5008454;28;20037;-72
2022/04/04 07:51:57;;;;;;;13.15;11.05;;;5.90;99.90;;;;;;5006635;28;20153;-74
2022/04/04 07:54:23;;;;;;;13.98;11.65;;;5.90;99.90;;;;;;4978600;28;20414;-73
2022/04/04 07:56:53;;;;;;;18.55;12.05;;;6.00;99.90;;;;;;5008237;28;20046;-74
2022/04/04 07:59:19;;;;;;;22.10;11.02;;;6.00;99.90;;;;;;4991185;28;20547;-74
2022/04/04 08:01:45;;;;;;;15.07;12.07;;;6.10;99.90;;;;;;4987033;28;20662;-73
2022/04/04 08:04:12;;;;;;;15.25;12.35;;;6.10;99.90;;;;;;5004142;28;20059;-74
2022/04/04 08:06:37;;;;;;;17.67;12.90;;;6.10;99.90;;;;;;5000591;28;20049;-75
2022/04/04 08:09:04;;;;;;;26.73;13.13;;;6.10;99.90;;;;;;4980774;28;20144;-78
2022/04/04 08:11:29;;;;;;;16.98;13.23;;;6.10;99.90;;;;;;4980921;28;20080;-75
2022/04/04 08:13:56;;;;;;;15.23;13.63;;;6.10;99.90;;;;;;5006107;28;20128;-75
2022/04/04 08:16:25;;;;;;;18.48;13.93;;;6.10;99.90;;;;;;5006963;28;20045;-74
2022/04/04 08:18:52;;;;;;;18.10;14.75;;;6.10;99.90;;;;;;5007287;28;20069;-73
2022/04/04 08:21:19;;;;;;;23.13;14.27;;;6.00;99.90;;;;;;5009385;28;20436;-75
2022/04/04 08:23:45;;;;;;;17.67;14.02;;;6.00;99.90;;;;;;5010215;28;20056;-73
2022/04/04 08:26:11;;;;;;;17.67;14.93;;;6.00;99.90;;;;;;5012075;28;20041;-72
2022/04/04 08:28:37;;;;;;;17.85;14.23;;;6.00;99.90;;;;;;5012735;28;20483;-74
2022/04/04 08:31:04;;;;;;;20.83;14.40;;;6.00;99.90;;;;;;5001150;28;20438;-73
2022/04/04 08:33:30;;;;;;;17.45;14.65;;;6.00;99.90;;;;;;4992006;28;20887;-73
2022/04/04 08:35:57;;;;;;;18.42;15.40;;;6.00;99.90;;;;;;5010889;28;20049;-72
2022/04/04 08:38:23;;;;;;;18.98;14.13;;;6.00;99.90;;;;;;5009897;28;20078;-74
2022/04/04 08:40:50;;;;;;;16.20;14.30;;;6.00;99.90;;;;;;4994578;28;20060;-73
2022/04/04 08:43:18;;;;;;;18.88;14.55;;;6.00;99.90;;;;;;5013346;28;20051;-73
2022/04/04 08:45:45;;;;;;;17.67;14.00;;;6.00;99.90;;;;;;4992601;28;20140;-74
2022/04/04 08:48:11;;;;;;;17.30;14.05;;;6.00;99.90;;;;;;5013377;28;20045;-74
2022/04/04 08:50:42;;;;;;;16.77;13.82;;;6.00;99.90;;;;;;4991592;28;20492;-73
2022/04/04 08:53:08;;;;;;;18.85;13.98;;;6.00;99.90;;;;;;5009356;28;20045;-73
2022/04/04 08:55:35;;;;;;;16.40;14.60;;;6.00;99.90;;;;;;5011826;28;20531;-74
2022/04/04 08:58:02;;;;;;;17.08;14.05;;;6.00;99.90;;;;;;5014557;28;20052;-74
2022/04/04 09:00:28;;;;;;;19.38;15.10;;;6.00;99.90;;;;;;5013373;28;20083;-73
2022/04/04 09:03:02;;;;;;;20.40;15.05;;;6.00;99.90;;;;;;4996491;28;20041;-72
2022/04/04 09:05:30;;;;;;;19.25;14.60;;;6.10;99.90;;;;;;5015384;28;20076;-73
2022/04/04 09:08:05;;;;;;;17.50;15.02;;;6.10;99.90;;;;;;4998665;28;20040;-73
2022/04/04 09:10:41;;;;;;;19.63;14.93;;;6.10;99.90;;;;;;5013200;28;20489;-74
2022/04/04 09:13:12;;;;;;;19.55;15.73;;;6.00;99.90;;;;;;5011649;28;20049;-73
2022/04/04 09:16:01;;;;;;;19.15;15.13;;;6.00;99.90;;;;;;5012099;28;20104;-74
2022/04/04 09:18:41;;;;;;;18.27;14.93;;;6.00;99.90;;;;;;5004447;28;20064;-73
2022/04/04 09:21:26;;;;;;;19.95;16.70;;;6.00;99.90;;;;;;5011970;28;20053;-73
2022/04/04 09:23:55;;;;;;;18.73;15.40;;;6.00;99.90;;;;;;5009418;28;20107;-75
2022/04/04 09:26:43;;;;;;;20.88;17.83;;;6.00;99.90;;;;;;5009680;28;20186;-73
2022/04/04 09:29:19;;;;;;;21.13;16.08;;;6.10;99.90;;;;;;5011438;28;20128;-72
2022/04/04 09:31:53;;;;;;;18.83;16.83;;;6.00;99.90;;;;;;4991989;28;20073;-72
2022/04/04 09:34:19;;;;;;;18.58;16.65;;;6.10;99.90;;;;;;5011540;28;20840;-72
2022/04/04 09:36:47;;;;;;;17.95;16.00;;;6.20;99.90;;;;;;5011326;28;20060;-74
2022/04/04 09:39:14;;;;;;;17.98;16.10;;;6.20;99.90;;;;;;5011526;28;20071;-76
2022/04/04 09:41:40;;;;;;;15.63;13.95;;;6.20;99.90;;;;;;5007055;28;20196;-75
2022/04/04 09:44:08;;;;;;;16.08;14.27;;;6.20;99.90;;;;;;5012795;28;20040;-74
2022/04/04 09:46:47;;;;;;;14.50;13.00;;;6.20;99.90;;;;;;5007406;28;20488;-79
2022/04/04 09:49:16;;;;;;;15.68;13.98;;;6.30;99.90;;;;;;4991371;28;20053;-77
2022/04/04 09:51:53;;;;;;;14.60;12.23;;;6.30;99.90;;;;;;5012537;28;20050;-75
2022/04/04 09:54:28;;;;;;;16.48;13.77;;;6.30;99.90;;;;;;4993097;28;20051;-76
2022/04/04 09:57:15;;;;;;;14.35;12.27;;;6.30;99.90;;;;;;5010863;28;20145;-74
2022/04/04 09:59:42;;;;;;;13.00;11.70;;;6.30;99.90;;;;;;4991493;28;20096;-77
2022/04/04 10:02:11;;;;;;;12.93;11.48;;;6.20;99.90;;;;;;5014571;28;20084;-75
2022/04/04 10:04:38;;;;;;;14.40;12.07;;;6.20;99.90;;;;;;4994937;28;20065;-74
2022/04/04 10:07:08;;;;;;;13.05;11.75;;;6.20;99.90;;;;;;5010349;28;20088;-74
2022/04/04 10:09:36;;;;;;;13.43;11.18;;;6.20;99.90;;;;;;5009148;28;20048;-75
2022/04/04 10:12:03;;;;;;;13.63;10.27;;;6.30;99.90;;;;;;4993234;28;20054;-77
2022/04/04 10:14:35;;;;;;;13.63;11.40;;;6.30;99.90;;;;;;5009574;28;20041;-76
2022/04/04 10:17:02;;;;;;;11.77;9.40;;;6.30;99.90;;;;;;4991204;28;20045;-76
2022/04/04 10:19:29;;;;;;;11.55;9.38;;;6.30;99.90;;;;;;5011588;28;20057;-76
2022/04/04 10:21:55;;;;;;;11.43;8.57;;;6.30;99.90;;;;;;4993293;28;20056;-75
2022/04/04 10:24:22;;;;;;;11.73;8.07;;;6.30;99.90;;;;;;4993943;28;20064;-78
2022/04/04 10:26:50;;;;;;;10.85;8.85;;;6.30;99.90;;;;;;5008993;28;20128;-76
2022/04/04 10:29:19;;;;;;;12.15;10.75;;;6.30;99.90;;;;;;5007850;28;20056;-73
2022/04/04 10:31:47;;;;;;;12.00;10.73;;;6.40;99.90;;;;;;5007802;28;20292;-74
2022/04/04 10:34:15;;;;;;;11.63;10.43;;;6.30;99.90;;;;;;5007779;28;20052;-74
2022/04/04 10:37:14;;;;;;;13.18;10.00;;;6.30;99.90;;;;;;5007758;28;20045;-76
2022/04/04 10:39:45;;;;;;;12.20;9.85;;;6.30;99.90;;;;;;4960212;28;20060;-76
2022/04/04 10:42:24;;;;;;;12.23;9.40;;;6.30;99.90;;;;;;4990616;28;20053;-75
2022/04/04 10:44:55;;;;;;;10.77;8.63;;;6.30;99.90;;;;;;5010082;28;20128;-79
2022/04/04 10:47:22;;;;;;;11.18;8.95;;;6.30;99.90;;;;;;5007720;28;20349;-79
2022/04/04 10:49:48;;;;;;;10.68;8.65;;;6.20;99.90;;;;;;5006920;28;20056;-76
2022/04/04 10:52:17;;;;;;;10.77;7.95;;;6.30;99.90;;;;;;5007655;28;20037;-78
2022/04/04 10:54:43;;;;;;;11.32;9.10;;;6.30;99.90;;;;;;4991555;28;20210;-77
2022/04/04 10:57:22;;;;;;;10.63;8.40;;;6.40;99.90;;;;;;5010348;28;20045;-78
2022/04/04 10:59:53;;;;;;;11.52;8.90;;;6.40;99.90;;;;;;4988498;28;20053;-75
2022/04/04 11:02:20;;;;;;;9.50;7.35;;;6.50;99.90;;;;;;4988087;28;20220;-78
2022/04/04 11:07:38;;;;;;;10.80;8.35;;;6.70;99.90;;;;;;5010580;28;20128;-74
2022/04/04 11:10:08;;;;;;;9.85;8.32;;;6.60;99.90;;;;;;5007848;28;20048;-75
2022/04/04 11:12:57;;;;;;;11.93;9.15;;;6.60;99.90;;;;;;4989788;28;20143;-74
2022/04/04 11:15:53;;;;;;;10.63;8.07;;;6.60;99.90;;;;;;5010358;28;20841;-78
2022/04/04 11:18:19;;;;;;;10.05;8.55;;;6.60;99.90;;;;;;5000763;28;20473;-77
2022/04/04 11:20:50;;;;;;;11.98;8.32;;;6.60;99.90;;;;;;5004255;28;20114;-75
2022/04/04 11:23:17;;;;;;;10.55;8.63;;;6.60;99.90;;;;;;5009096;28;20816;-74
2022/04/04 11:25:53;;;;;;;9.50;7.75;;;6.70;99.90;;;;;;5007033;28;20084;-75
2022/04/04 11:28:22;;;;;;;9.15;7.43;;;6.70;99.90;;;;;;5004994;28;20052;-74
2022/04/04 11:30:52;;;;;;;10.82;7.35;;;6.70;99.90;;;;;;4987850;28;20054;-77
2022/04/04 11:33:22;;;;;;;9.23;7.22;;;6.70;99.90;;;;;;5002179;28;20087;-76
2022/04/04 11:35:50;;;;;;;9.68;7.18;;;6.70;99.90;;;;;;5004805;28;20080;-75
2022/04/04 11:38:19;;;;;;;10.30;7.88;;;6.80;99.90;;;;;;5004446;28;20053;-75
2022/04/04 11:40:53;;;;;;;9.18;7.88;;;6.80;99.90;;;;;;4987361;28;20049;-75
2022/04/04 11:43:21;;;;;;;8.75;7.07;;;6.80;99.90;;;;;;4987379;28;20328;-76
2022/04/04 11:45:49;;;;;;;8.60;6.95;;;6.80;99.90;;;;;;5004060;28;20052;-75
2022/04/04 11:48:23;;;;;;;8.45;6.95;;;6.90;99.90;;;;;;4973830;28;20049;-76
2022/04/04 11:50:51;;;;;;;9.05;7.32;;;6.80;99.90;;;;;;5005064;28;20531;-76
2022/04/04 11:53:25;;;;;;;8.57;7.00;;;6.80;99.90;;;;;;5004849;28;20106;-75
2022/04/04 11:55:51;;;;;;;;;;;6.90;99.90;;;;;;4991835;28;20139;-77
2022/04/04 11:58:20;;;;;;;9.05;7.03;;;7.00;99.90;;;;;;4980174;28;19932;-76
2022/04/04 12:00:55;;;;;;;10.27;8.02;;;7.00;99.90;;;;;;5013886;28;20057;-76
2022/04/04 12:03:23;;;;;;;11.43;8.27;;;7.10;99.90;;;;;;4995345;28;20985;-76
2022/04/04 12:05:50;;;;;;;8.65;7.03;;;7.10;99.90;;;;;;5013267;28;20078;-78
2022/04/04 12:09:00;;;;;;;8.45;6.70;;;7.00;99.90;;;;;;5015162;28;20049;-77
2022/04/04 12:11:30;;;;;;;8.15;6.70;;;7.10;99.90;;;;;;4994524;28;20212;-75
2022/04/04 12:14:00;;;;;;;9.02;6.90;;;7.10;99.90;;;;;;5015031;28;20057;-76
2022/04/04 12:16:30;;;;;;;9.07;6.93;;;7.10;99.90;;;;;;5011141;28;20049;-76
2022/04/04 12:18:59;;;;;;;8.38;6.65;;;7.10;99.90;;;;;;5013501;28;20057;-76
2022/04/04 12:21:26;;;;;;;9.32;6.63;;;7.10;99.90;;;;;;5013508;28;20060;-75
2022/04/04 12:26:37;;;;;;;9.77;6.82;;;7.20;99.90;;;;;;5008154;28;20049;-76
2022/04/04 12:29:10;;;;;;;15.27;6.93;;;7.20;99.90;;;;;;5008686;28;20045;-75
2022/04/04 12:31:36;;;;;;;12.23;6.70;;;7.20;99.90;;;;;;5010510;28;20158;-76
2022/04/04 12:34:10;;;;;;;11.88;6.38;;;7.30;99.90;;;;;;4989786;28;20539;-76
2022/04/04 12:36:41;;;;;;;14.70;6.35;;;7.30;99.90;;;;;;5010606;28;20055;-79
2022/04/04 12:39:13;;;;;;;12.45;6.22;;;7.40;99.90;;;;;;4996219;28;20057;-76
2022/04/04 12:41:56;;;;;;;7.47;5.90;;;7.40;99.90;;;;;;4993705;28;20061;-76
2022/04/04 12:44:24;;;;;;;8.23;5.60;;;7.40;99.90;;;;;;4993293;28;20048;-76
2022/04/04 12:46:50;;;;;;;7.20;5.15;;;7.40;99.90;;;;;;5008226;28;20057;-78
2022/04/04 12:49:20;;;;;;;7.35;5.07;;;7.40;99.90;;;;;;5006852;28;20633;-76
2022/04/04 12:51:59;;;;;;;6.45;5.05;;;7.50;99.90;;;;;;4995558;28;20129;-79
2022/04/04 12:54:30;;;;;;;7.00;5.30;;;7.40;99.90;;;;;;4992301;28;20051;-78
2022/04/04 12:56:57;;;;;;;7.88;6.00;;;7.40;99.90;;;;;;5009386;28;20657;-76